Hauptseite
METAR-TAF:

METAR-TAF

Flughäfen :

Siegen, Deutschland

Siegerlandflughafen

Breite: 50-42-28N, Länge: 008-04-59E, Höhe: 602 m

Beobachtung

Neuester Wetterbericht von vor 36 Minuten, um 11:20 UTC
Wind 6 kt aus West/Nordwest, variierte zwischen West und Nordwest
Temperatur 15°C
Luftfeuchtigkeit 59%
Luftdruck 1025 hPa
Sichtweite 10 km oder mehr
Leicht bewölkt in der Höhe von 3600 ft

METAR: EDGS 211120Z 30006KT 260V320 9999 FEW036 15/07 Q1025

Zeit: 13:56 (11:56 UTC)

Prognose

Neuester Wetterbericht von vor 56 Minuten, um 11:00 UTC
Gültige Prognose vom 21 um 12 UTC bis 21 um 21 UTC
Wind 6 kt aus West/Nordwest
Sichtweite 10 km oder mehr
Leicht bewölkt in der Höhe von 4000 ft

TAF: EDGS 211100Z 2112/2121 29006KT 9999 FEW040

Wetterbeobachtungen und Prognosen von mehr als 4000 Flughäfen (METAR und TAF Bericht).

Die verfügbaren Stationen werden durch gelbe und rote Markierungen auf der Karte dargestellt.

Führen Sie die Maus auf sie, um den Namen der Station zu sehen.

Darauf klicken, um die Beobachtung von Wetterbeobachtungen und Prognosen zu sehen.

Um die Karte zu ändern : klicken Sie auf den grünen Tasten mit einem schwarzen Kreuz Zum Vergrößern, auf den grünen Button mit einem Gedankenstrich zu verkleinern, oder auf die grünen Pfeile für benachbarte Karten.


METAR-TAF: